createdAt,value
2023-05-02T00:00:29.201Z,6.18
2023-05-02T00:02:56.593Z,6.30
2023-05-02T00:05:23.979Z,5.78
2023-05-02T00:07:51.750Z,5.35
2023-05-02T00:10:20.507Z,6.43
2023-05-02T00:12:48.020Z,5.97
2023-05-02T00:15:15.238Z,6.82
2023-05-02T00:17:42.736Z,6.85
2023-05-02T00:20:11.110Z,7.30
2023-05-02T00:22:39.188Z,6.93
2023-05-02T00:25:07.158Z,6.07
2023-05-02T00:27:35.676Z,6.35
2023-05-02T00:30:03.350Z,6.30
2023-05-02T00:32:30.688Z,6.05
2023-05-02T00:34:57.865Z,6.07
2023-05-02T00:37:26.781Z,5.53
2023-05-02T00:39:53.982Z,5.45
2023-05-02T00:42:21.185Z,5.20
2023-05-02T00:44:50.119Z,6.10
2023-05-02T00:47:17.361Z,5.50
2023-05-02T00:49:44.505Z,6.15
2023-05-02T00:52:11.698Z,6.88
2023-05-02T00:54:38.895Z,6.47
2023-05-02T00:57:06.109Z,7.10
2023-05-02T00:59:34.929Z,6.50
2023-05-02T01:02:15.322Z,6.00
2023-05-02T01:04:53.859Z,6.85
2023-05-02T01:07:35.565Z,6.38
2023-05-02T01:10:14.229Z,6.63
2023-05-02T01:12:45.558Z,6.50
2023-05-02T01:15:17.335Z,6.90
2023-05-02T01:17:48.136Z,5.72
2023-05-02T01:20:20.298Z,6.40
2023-05-02T01:22:48.718Z,5.80
2023-05-02T01:25:24.638Z,5.45
2023-05-02T01:28:03.536Z,5.93
2023-05-02T01:30:36.306Z,6.68
2023-05-02T01:33:06.024Z,6.28
2023-05-02T01:35:35.104Z,6.05
2023-05-02T01:38:03.372Z,6.00
2023-05-02T01:40:31.433Z,5.63
2023-05-02T01:43:00.750Z,4.90
2023-05-02T01:45:29.002Z,6.72
2023-05-02T01:47:58.384Z,6.68
2023-05-02T01:50:26.304Z,6.15
2023-05-02T01:52:55.166Z,5.80
2023-05-02T01:55:24.387Z,5.35
2023-05-02T01:57:54.755Z,5.50
2023-05-02T02:00:24.288Z,5.13
2023-05-02T02:02:53.652Z,5.70
2023-05-02T02:05:24.039Z,5.03
2023-05-02T02:07:51.501Z,5.63
2023-05-02T02:10:19.056Z,6.20
2023-05-02T02:12:53.013Z,6.85
2023-05-02T02:15:25.980Z,6.28
2023-05-02T02:17:59.138Z,6.63
2023-05-02T02:20:29.796Z,6.13
2023-05-02T02:22:59.125Z,6.07
2023-05-02T02:25:27.294Z,4.95
2023-05-02T02:27:54.714Z,4.40
2023-05-02T02:30:21.864Z,5.10
2023-05-02T02:32:49.127Z,5.30
2023-05-02T02:35:16.334Z,5.45
2023-05-02T02:37:50.952Z,5.80
2023-05-02T02:40:25.983Z,4.88
2023-05-02T02:43:05.149Z,5.28
2023-05-02T02:45:38.045Z,5.40
2023-05-02T02:48:13.445Z,5.28
2023-05-02T02:50:52.704Z,5.22
2023-05-02T02:53:27.361Z,5.28
2023-05-02T02:56:00.353Z,6.32
2023-05-02T02:58:39.367Z,6.63
2023-05-02T03:01:11.521Z,5.78
2023-05-02T03:03:40.510Z,5.53
2023-05-02T03:06:07.832Z,5.70
2023-05-02T03:08:43.957Z,6.13
2023-05-02T03:11:15.829Z,6.70
2023-05-02T03:13:43.163Z,6.55
2023-05-02T03:16:44.357Z,5.72
2023-05-02T03:19:15.183Z,6.10
2023-05-02T03:21:42.350Z,6.78
2023-05-02T03:24:19.478Z,6.32
2023-05-02T03:26:47.464Z,7.55
2023-05-02T03:29:16.194Z,7.10
2023-05-02T03:31:43.735Z,7.88
2023-05-02T03:34:10.942Z,7.07
2023-05-02T03:36:38.936Z,8.52
2023-05-02T03:39:06.133Z,10.68
2023-05-02T03:41:34.700Z,10.85
2023-05-02T03:44:07.094Z,10.85
2023-05-02T03:46:34.847Z,11.38
2023-05-02T03:49:05.562Z,12.80
2023-05-02T03:51:32.986Z,12.15
2023-05-02T03:54:00.714Z,12.98
2023-05-02T03:56:28.028Z,11.88
2023-05-02T03:59:11.648Z,13.40
2023-05-02T04:01:38.948Z,11.82
2023-05-02T04:04:07.294Z,12.35
2023-05-02T04:06:38.697Z,11.70
2023-05-02T04:09:08.156Z,12.88
2023-05-02T04:11:41.862Z,11.25
2023-05-02T04:14:11.263Z,10.55
2023-05-02T04:16:39.518Z,10.38
2023-05-02T04:19:07.152Z,10.45
2023-05-02T04:21:37.009Z,11.82
2023-05-02T04:24:05.993Z,10.38
2023-05-02T04:26:33.673Z,11.27
2023-05-02T04:29:06.664Z,11.85
2023-05-02T04:31:35.838Z,10.27
2023-05-02T04:34:03.116Z,15.65
2023-05-02T04:36:34.847Z,11.10
2023-05-02T04:39:03.125Z,12.57
2023-05-02T04:41:32.254Z,13.10
2023-05-02T04:44:04.796Z,11.05
2023-05-02T04:46:32.106Z,9.20
2023-05-02T04:49:00.681Z,9.90
2023-05-02T04:51:27.881Z,9.20
2023-05-02T04:53:55.064Z,8.82
2023-05-02T04:56:22.372Z,10.20
2023-05-02T04:58:50.100Z,9.43
2023-05-02T05:01:17.373Z,10.02
2023-05-02T05:03:46.066Z,9.35
2023-05-02T05:06:16.398Z,9.27
2023-05-02T05:08:44.513Z,8.88
2023-05-02T05:11:12.342Z,9.40
2023-05-02T05:13:39.788Z,9.73
2023-05-02T05:16:07.950Z,10.30
2023-05-02T05:18:35.369Z,10.23
2023-05-02T05:21:02.561Z,10.65
2023-05-02T05:23:31.134Z,10.45
2023-05-02T05:25:58.286Z,10.90
2023-05-02T05:28:25.434Z,10.40
2023-05-02T05:30:52.632Z,10.60
2023-05-02T05:33:22.737Z,10.50
2023-05-02T05:35:50.876Z,10.50
2023-05-02T05:38:18.183Z,10.13
2023-05-02T05:40:50.792Z,10.00
2023-05-02T05:45:45.406Z,9.70
2023-05-02T05:48:12.942Z,9.68
2023-05-02T05:50:44.410Z,9.43
2023-05-02T05:53:12.107Z,10.95
2023-05-02T05:55:42.342Z,11.82
2023-05-02T05:58:12.199Z,11.55
2023-05-02T06:00:41.195Z,12.50
2023-05-02T06:03:10.037Z,12.38
2023-05-02T06:05:38.616Z,15.60
2023-05-02T06:08:06.201Z,14.75
2023-05-02T06:10:34.957Z,16.05
2023-05-02T06:13:03.209Z,15.60
2023-05-02T06:15:35.990Z,16.13
2023-05-02T06:18:06.064Z,16.57
2023-05-02T06:20:35.634Z,17.10
2023-05-02T06:23:03.363Z,16.85
2023-05-02T06:25:30.770Z,17.52
2023-05-02T06:27:59.977Z,18.65
2023-05-02T06:30:27.924Z,16.80
2023-05-02T06:32:57.421Z,18.20
2023-05-02T06:35:25.304Z,17.38
2023-05-02T06:37:53.108Z,18.73
2023-05-02T06:40:20.572Z,17.85
2023-05-02T06:42:48.778Z,18.70
2023-05-02T06:45:16.478Z,18.52
2023-05-02T06:47:44.142Z,18.27
2023-05-02T06:50:14.908Z,16.63
2023-05-02T06:52:42.413Z,19.25
2023-05-02T06:55:10.352Z,19.85
2023-05-02T06:57:38.349Z,19.17
2023-05-02T07:00:07.049Z,19.70
2023-05-02T07:02:34.441Z,18.52
2023-05-02T07:05:01.997Z,18.08
2023-05-02T07:07:30.540Z,19.00
2023-05-02T07:09:58.515Z,18.50
2023-05-02T07:12:26.273Z,18.02
2023-05-02T07:14:53.786Z,19.08
2023-05-02T07:17:21.746Z,18.92
2023-05-02T07:19:49.316Z,18.23
2023-05-02T07:22:16.687Z,18.80
2023-05-02T07:24:45.556Z,16.95
2023-05-02T07:27:13.277Z,17.88
2023-05-02T07:29:40.470Z,17.17
2023-05-02T07:32:08.029Z,15.63
2023-05-02T07:34:35.758Z,17.25
2023-05-02T07:37:03.006Z,16.27
2023-05-02T07:39:32.850Z,18.02
2023-05-02T07:42:01.786Z,16.38
2023-05-02T07:44:29.225Z,15.50
2023-05-02T07:46:57.018Z,17.10
2023-05-02T07:49:24.580Z,16.90
2023-05-02T07:51:51.949Z,16.48
2023-05-02T07:54:20.470Z,17.92
2023-05-02T07:56:48.875Z,17.30
2023-05-02T07:59:17.725Z,16.05
2023-05-02T08:01:44.967Z,16.75
2023-05-02T08:04:12.322Z,15.80
2023-05-02T08:06:39.700Z,16.17
2023-05-02T08:09:07.156Z,16.00
2023-05-02T08:11:35.001Z,16.70
2023-05-02T08:14:02.348Z,16.25
2023-05-02T08:16:30.980Z,16.90
2023-05-02T08:18:58.209Z,15.70
2023-05-02T08:21:25.655Z,17.23
2023-05-02T08:23:57.468Z,16.95
2023-05-02T08:26:25.311Z,15.40
2023-05-02T08:28:53.011Z,16.30
2023-05-02T08:31:21.267Z,13.50
2023-05-02T08:33:49.957Z,15.20
2023-05-02T08:36:18.575Z,15.52
2023-05-02T08:38:46.664Z,12.30
2023-05-02T08:41:15.309Z,15.30
2023-05-02T08:43:43.268Z,16.33
2023-05-02T08:46:11.603Z,14.60
2023-05-02T08:48:40.862Z,15.60
2023-05-02T08:51:12.038Z,15.27
2023-05-02T08:53:40.813Z,17.02
2023-05-02T08:56:09.208Z,16.42
2023-05-02T08:58:37.983Z,17.20
2023-05-02T09:01:10.726Z,15.20
2023-05-02T09:03:38.465Z,14.75
2023-05-02T09:06:07.338Z,15.00
2023-05-02T09:08:37.484Z,15.82
2023-05-02T09:11:05.762Z,14.82
2023-05-02T09:13:35.376Z,14.32
2023-05-02T09:16:04.472Z,12.00
2023-05-02T09:18:33.370Z,12.73
2023-05-02T09:21:03.901Z,13.75
2023-05-02T09:23:40.864Z,12.57
2023-05-02T09:26:12.325Z,12.75
2023-05-02T09:28:41.758Z,12.13
2023-05-02T09:31:10.656Z,10.55
2023-05-02T09:33:39.020Z,9.20
2023-05-02T09:36:07.491Z,9.73
2023-05-02T09:38:35.031Z,10.93
2023-05-02T09:41:03.846Z,10.27
2023-05-02T09:43:31.790Z,10.98
2023-05-02T09:46:00.718Z,10.02
2023-05-02T09:48:29.085Z,10.32
2023-05-02T09:50:57.278Z,9.82
2023-05-02T09:53:27.619Z,8.35
2023-05-02T09:56:04.350Z,11.45
2023-05-02T09:58:31.672Z,10.82
2023-05-02T10:00:59.482Z,10.50
2023-05-02T10:03:28.178Z,11.25
2023-05-02T10:05:56.455Z,11.27
2023-05-02T10:08:25.897Z,7.10
2023-05-02T10:10:56.256Z,9.40
2023-05-02T10:13:26.546Z,10.63
2023-05-02T10:16:00.594Z,9.07
2023-05-02T10:18:33.634Z,8.68
2023-05-02T10:21:08.252Z,8.10
2023-05-02T10:23:36.178Z,6.80
2023-05-02T10:26:04.507Z,7.35
2023-05-02T10:28:34.566Z,8.25
2023-05-02T10:31:05.330Z,8.63
2023-05-02T10:33:35.458Z,6.00
2023-05-02T10:36:03.729Z,7.03
2023-05-02T10:38:32.287Z,8.50
2023-05-02T10:41:01.924Z,7.47
2023-05-02T10:43:35.364Z,9.10
2023-05-02T10:46:03.225Z,8.07
2023-05-02T10:48:30.957Z,6.97
2023-05-02T10:51:00.116Z,8.73
2023-05-02T10:53:29.902Z,6.97
2023-05-02T10:56:18.608Z,6.97
2023-05-02T10:58:48.348Z,7.85
2023-05-02T11:01:38.067Z,6.72
2023-05-02T11:04:07.003Z,5.45
2023-05-02T11:06:36.172Z,6.57
2023-05-02T11:09:34.601Z,5.60
2023-05-02T11:12:02.778Z,5.50
2023-05-02T11:14:58.702Z,4.85
2023-05-02T11:17:26.469Z,5.07
2023-05-02T11:20:24.270Z,6.05
2023-05-02T11:22:52.867Z,5.50
2023-05-02T11:25:37.653Z,5.80
2023-05-02T11:28:07.009Z,5.13
2023-05-02T11:30:45.696Z,4.50
2023-05-02T11:33:17.334Z,4.63
2023-05-02T11:35:49.143Z,4.78
2023-05-02T11:40:55.827Z,3.58
2023-05-02T11:43:24.144Z,4.43
2023-05-02T11:45:53.365Z,5.50
2023-05-02T11:48:22.217Z,7.13
2023-05-02T11:50:51.518Z,6.55
2023-05-02T11:53:20.445Z,5.07
2023-05-02T11:55:49.361Z,5.22
2023-05-02T11:58:17.726Z,4.10
2023-05-02T12:00:45.804Z,3.20
2023-05-02T12:03:21.834Z,3.25
2023-05-02T12:05:49.253Z,2.60
2023-05-02T12:08:24.982Z,2.28
2023-05-02T12:10:54.071Z,1.70
2023-05-02T12:13:23.384Z,1.38
2023-05-02T12:15:52.558Z,1.10
2023-05-02T12:18:23.289Z,1.70
2023-05-02T12:20:52.500Z,2.70
2023-05-02T12:23:21.069Z,3.20
2023-05-02T12:25:49.140Z,3.35
2023-05-02T12:28:18.505Z,3.78
2023-05-02T12:30:48.660Z,3.40
2023-05-02T12:33:16.504Z,3.63
2023-05-02T12:35:45.481Z,3.47
2023-05-02T12:38:15.028Z,3.50
2023-05-02T12:40:50.768Z,3.42
2023-05-02T12:43:19.322Z,3.75
2023-05-02T12:45:47.341Z,3.55
2023-05-02T12:48:22.739Z,2.50
2023-05-02T12:50:52.556Z,1.40
2023-05-02T12:53:41.370Z,1.45
2023-05-02T12:56:09.270Z,1.77
2023-05-02T12:58:44.323Z,1.70
2023-05-02T13:01:12.252Z,1.90
2023-05-02T13:03:40.110Z,1.45
2023-05-02T13:06:09.626Z,1.40
2023-05-02T13:08:37.175Z,1.50
2023-05-02T13:11:04.784Z,1.77
2023-05-02T13:13:32.279Z,1.65
2023-05-02T13:15:59.529Z,1.48
2023-05-02T13:18:27.053Z,1.50
2023-05-02T13:20:54.285Z,1.10
2023-05-02T13:23:22.970Z,1.50
2023-05-02T13:25:50.285Z,1.48
2023-05-02T13:28:17.478Z,1.40
2023-05-02T13:30:44.831Z,1.50
2023-05-02T13:33:12.349Z,1.20
2023-05-02T13:35:39.958Z,1.95
2023-05-02T13:38:07.358Z,1.40
2023-05-02T13:40:36.632Z,1.50
2023-05-02T13:43:04.718Z,1.83
2023-05-02T13:45:32.871Z,1.63
2023-05-02T13:48:00.311Z,1.30
2023-05-02T13:50:27.648Z,1.60
2023-05-02T13:52:55.348Z,1.50
2023-05-02T13:55:23.112Z,1.65
2023-05-02T13:57:52.034Z,1.38
2023-05-02T14:00:19.693Z,1.52
2023-05-02T14:02:47.430Z,1.50
2023-05-02T14:05:15.101Z,1.80
2023-05-02T14:07:42.830Z,1.95
2023-05-02T14:10:10.690Z,1.80
2023-05-02T14:12:38.289Z,1.50
2023-05-02T14:15:08.410Z,1.67
2023-05-02T14:17:36.163Z,1.60
2023-05-02T14:20:03.942Z,1.67
2023-05-02T14:22:31.400Z,1.27
2023-05-02T14:24:58.826Z,1.10
2023-05-02T14:27:26.295Z,1.20
2023-05-02T14:29:53.789Z,1.30
2023-05-02T14:32:25.154Z,1.13
2023-05-02T14:34:53.033Z,1.00
2023-05-02T14:37:20.304Z,1.20
2023-05-02T14:39:49.180Z,1.60
2023-05-02T14:42:18.584Z,1.10
2023-05-02T14:44:45.815Z,1.05
2023-05-02T14:47:13.169Z,1.40
2023-05-02T14:49:42.166Z,1.27
2023-05-02T14:52:09.805Z,1.15
2023-05-02T14:54:37.015Z,1.55
2023-05-02T14:57:04.276Z,1.38
2023-05-02T14:59:32.004Z,1.40
2023-05-02T15:01:59.718Z,1.48
2023-05-02T15:04:27.947Z,1.17
2023-05-02T15:06:57.282Z,1.40
2023-05-02T15:09:24.693Z,1.40
2023-05-02T15:11:52.141Z,1.50
2023-05-02T15:14:19.756Z,1.60
2023-05-02T15:16:47.107Z,1.80
2023-05-02T15:19:15.050Z,1.83
2023-05-02T15:21:42.292Z,1.60
2023-05-02T15:24:12.333Z,1.70
2023-05-02T15:26:39.922Z,1.50
2023-05-02T15:29:07.158Z,1.80
2023-05-02T15:31:34.908Z,2.03
2023-05-02T15:34:02.325Z,2.17
2023-05-02T15:36:31.915Z,2.40
2023-05-02T15:38:59.405Z,2.60
2023-05-02T15:41:28.141Z,2.63
2023-05-02T15:43:56.836Z,2.85
2023-05-02T15:46:24.463Z,2.70
2023-05-02T15:48:51.800Z,3.17
2023-05-02T15:51:19.240Z,2.92
2023-05-02T15:53:47.085Z,2.92
2023-05-02T15:56:14.673Z,3.10
2023-05-02T15:58:43.534Z,4.07
2023-05-02T16:01:10.981Z,2.85
2023-05-02T16:03:38.958Z,2.90
2023-05-02T16:06:06.963Z,3.05
2023-05-02T16:08:34.524Z,2.60
2023-05-02T16:11:02.236Z,3.00
2023-05-02T16:13:29.798Z,2.92
2023-05-02T16:15:58.555Z,3.30
2023-05-02T16:18:26.123Z,3.00
2023-05-02T16:20:54.184Z,3.00
2023-05-02T16:23:21.623Z,3.17
2023-05-02T16:25:48.805Z,4.38
2023-05-02T16:28:16.227Z,3.70
2023-05-02T16:30:43.732Z,4.30
2023-05-02T16:33:12.606Z,4.53
2023-05-02T16:35:40.190Z,4.10
2023-05-02T16:38:07.554Z,4.03
2023-05-02T16:40:34.925Z,4.43
2023-05-02T16:43:02.790Z,2.70
2023-05-02T16:45:30.231Z,3.78
2023-05-02T16:47:57.613Z,4.15
2023-05-02T16:50:26.566Z,3.30
2023-05-02T16:52:54.044Z,4.55
2023-05-02T16:55:21.827Z,4.30
2023-05-02T16:57:49.212Z,4.95
2023-05-02T17:00:17.500Z,5.72
2023-05-02T17:02:45.303Z,4.95
2023-05-02T17:05:12.791Z,5.60
2023-05-02T17:07:41.568Z,5.35
2023-05-02T17:10:10.165Z,4.28
2023-05-02T17:12:37.812Z,4.95
2023-05-02T17:15:06.599Z,5.03
2023-05-02T17:17:33.778Z,4.97
2023-05-02T17:20:01.316Z,4.78
2023-05-02T17:22:28.741Z,5.03
2023-05-02T17:24:57.777Z,4.40
2023-05-02T17:27:25.112Z,4.60
2023-05-02T17:29:52.431Z,5.05
2023-05-02T17:32:19.812Z,4.88
2023-05-02T17:34:47.510Z,4.85
2023-05-02T17:37:15.608Z,5.32
2023-05-02T17:39:43.218Z,4.88
2023-05-02T17:42:11.826Z,5.45
2023-05-02T17:44:39.187Z,4.90
2023-05-02T17:47:06.675Z,4.97
2023-05-02T17:49:34.285Z,4.20
2023-05-02T17:52:01.479Z,4.72
2023-05-02T17:54:28.847Z,4.88
2023-05-02T17:56:56.065Z,5.18
2023-05-02T17:59:25.028Z,5.22
2023-05-02T18:01:52.285Z,3.67
2023-05-02T18:04:19.558Z,4.38
2023-05-02T18:06:47.113Z,5.20
2023-05-02T18:09:14.527Z,4.72
2023-05-02T18:11:42.149Z,4.50
2023-05-02T18:14:09.668Z,4.35
2023-05-02T18:16:38.490Z,4.35
2023-05-02T18:19:05.805Z,4.55
2023-05-02T18:21:33.789Z,4.80
2023-05-02T18:24:01.160Z,4.63
2023-05-02T18:26:28.580Z,4.60
2023-05-02T18:28:55.885Z,4.40
2023-05-02T18:31:23.434Z,5.15
2023-05-02T18:33:53.927Z,4.47
2023-05-02T18:36:25.253Z,4.60
2023-05-02T18:38:52.625Z,4.70
2023-05-02T18:41:19.942Z,4.63
2023-05-02T18:43:47.545Z,3.42
2023-05-02T18:46:15.158Z,4.43
2023-05-02T18:48:42.615Z,4.32
2023-05-02T18:51:11.146Z,4.03
2023-05-02T18:53:38.795Z,5.00
2023-05-02T18:56:12.032Z,4.50
2023-05-02T18:58:39.482Z,4.60
2023-05-02T19:01:12.194Z,4.68
2023-05-02T19:03:40.352Z,4.38
2023-05-02T19:06:08.069Z,4.60
2023-05-02T19:08:36.838Z,5.13
2023-05-02T19:11:04.317Z,4.80
2023-05-02T19:13:31.736Z,4.95
2023-05-02T19:15:58.974Z,4.65
2023-05-02T19:18:26.671Z,4.63
2023-05-02T19:20:54.295Z,4.60
2023-05-02T19:23:21.899Z,4.82
2023-05-02T19:25:50.934Z,4.78
2023-05-02T19:28:18.749Z,4.93
2023-05-02T19:30:46.516Z,5.10
2023-05-02T19:33:14.340Z,5.18
2023-05-02T19:35:42.088Z,5.05
2023-05-02T19:38:09.388Z,5.65
2023-05-02T19:40:37.434Z,4.75
2023-05-02T19:43:06.503Z,5.45
2023-05-02T19:45:34.178Z,5.55
2023-05-02T19:48:02.113Z,5.45
2023-05-02T19:50:31.164Z,5.70
2023-05-02T19:53:00.130Z,5.15
2023-05-02T19:55:27.757Z,4.95
2023-05-02T19:57:55.626Z,4.50
2023-05-02T20:00:24.214Z,4.82
2023-05-02T20:02:51.822Z,4.93
2023-05-02T20:05:19.780Z,5.15
2023-05-02T20:07:47.117Z,5.22
2023-05-02T20:10:14.429Z,5.60
2023-05-02T20:12:41.950Z,4.90
2023-05-02T20:15:09.948Z,4.65
2023-05-02T20:17:38.691Z,4.88
2023-05-02T20:20:07.051Z,4.53
2023-05-02T20:22:34.540Z,5.85
2023-05-02T20:25:02.413Z,4.97
2023-05-02T20:27:29.693Z,5.15
2023-05-02T20:29:56.874Z,4.80
2023-05-02T20:32:24.645Z,4.75
2023-05-02T20:34:53.422Z,4.72
2023-05-02T20:37:21.374Z,5.40
2023-05-02T20:39:49.356Z,4.72
2023-05-02T20:42:16.936Z,4.85
2023-05-02T20:44:44.313Z,4.95
2023-05-02T20:47:11.451Z,5.20
2023-05-02T20:49:39.333Z,5.07
2023-05-02T20:52:07.821Z,5.15
2023-05-02T20:54:35.472Z,4.97
2023-05-02T20:57:03.727Z,5.45
2023-05-02T20:59:31.318Z,5.30
2023-05-02T21:01:58.917Z,4.97
2023-05-02T21:04:26.506Z,5.50
2023-05-02T21:06:54.008Z,5.82
2023-05-02T21:09:23.283Z,5.40
2023-05-02T21:11:51.234Z,5.55
2023-05-02T21:14:18.525Z,5.20
2023-05-02T21:16:46.345Z,6.05
2023-05-02T21:19:13.690Z,6.25
2023-05-02T21:21:41.389Z,5.63
2023-05-02T21:24:09.652Z,5.90
2023-05-02T21:26:39.281Z,5.40
2023-05-02T21:29:08.447Z,6.80
2023-05-02T21:31:36.347Z,5.70
2023-05-02T21:34:03.802Z,5.38
2023-05-02T21:36:31.550Z,6.20
2023-05-02T21:38:58.860Z,5.97
2023-05-02T21:41:26.384Z,5.68
2023-05-02T21:43:55.593Z,5.38
2023-05-02T21:46:23.313Z,5.90
2023-05-02T21:48:50.982Z,5.50
2023-05-02T21:51:18.268Z,4.75
2023-05-02T21:53:45.992Z,5.72
2023-05-02T21:56:13.224Z,4.97
2023-05-02T21:58:41.150Z,5.95
2023-05-02T22:01:10.203Z,4.93
2023-05-02T22:03:37.468Z,5.30
2023-05-02T22:06:06.232Z,5.13
2023-05-02T22:08:34.667Z,5.68
2023-05-02T22:11:06.957Z,4.97
2023-05-02T22:13:34.730Z,5.40
2023-05-02T22:16:02.182Z,5.85
2023-05-02T22:18:31.339Z,5.80
2023-05-02T22:20:59.049Z,5.10
2023-05-02T22:23:26.393Z,5.15
2023-05-02T22:25:53.602Z,5.35
2023-05-02T22:28:21.266Z,5.28
2023-05-02T22:30:49.565Z,5.65
2023-05-02T22:33:17.078Z,5.38
2023-05-02T22:35:46.108Z,5.20
2023-05-02T22:38:15.779Z,4.75
2023-05-02T22:40:44.289Z,5.25
2023-05-02T22:43:11.767Z,5.60
2023-05-02T22:45:40.968Z,5.18
2023-05-02T22:48:08.772Z,5.15
2023-05-02T22:50:36.774Z,4.90
2023-05-02T22:53:05.338Z,5.05
2023-05-02T22:55:32.782Z,4.47
2023-05-02T22:58:00.219Z,5.10
2023-05-02T23:00:27.693Z,5.53
2023-05-02T23:02:55.881Z,4.70
2023-05-02T23:05:23.526Z,5.18
2023-05-02T23:07:51.169Z,5.60
2023-05-02T23:10:20.569Z,4.78
2023-05-02T23:12:48.488Z,4.53
2023-05-02T23:15:16.453Z,4.43
2023-05-02T23:17:43.897Z,4.75
2023-05-02T23:20:12.223Z,5.30
2023-05-02T23:22:45.726Z,5.05
2023-05-02T23:25:16.022Z,4.65
2023-05-02T23:27:46.217Z,5.07
2023-05-02T23:30:14.030Z,5.13
2023-05-02T23:32:41.890Z,4.82
2023-05-02T23:35:10.809Z,4.80
2023-05-02T23:37:38.907Z,5.80
2023-05-02T23:40:08.023Z,4.93
2023-05-02T23:42:36.259Z,5.00
2023-05-02T23:45:07.142Z,4.03
2023-05-02T23:47:34.587Z,4.90
2023-05-02T23:50:02.582Z,4.93
2023-05-02T23:52:30.561Z,5.15
2023-05-02T23:54:58.215Z,4.97
2023-05-02T23:57:25.676Z,4.80
2023-05-02T23:59:53.721Z,4.88
